sensor_id;sensor_type;location;lat;lon;timestamp;pressure;altitude;pressure_sealevel;temperature;humidity
55456;BME280;63021;52.836;6.376;2024-02-21T00:00:02;102075.84;;;9.66;79.14
55456;BME280;63021;52.836;6.376;2024-02-21T00:02:27;102090.22;;;9.64;78.49
55456;BME280;63021;52.836;6.376;2024-02-21T00:04:53;102087.44;;;9.65;79.20
55456;BME280;63021;52.836;6.376;2024-02-21T00:07:18;102074.16;;;9.65;78.92
55456;BME280;63021;52.836;6.376;2024-02-21T00:09:44;102082.25;;;9.64;79.15
55456;BME280;63021;52.836;6.376;2024-02-21T00:12:09;102075.06;;;9.53;78.77
55456;BME280;63021;52.836;6.376;2024-02-21T00:14:35;102076.09;;;9.63;78.88
55456;BME280;63021;52.836;6.376;2024-02-21T00:17:03;102098.00;;;9.67;78.84
55456;BME280;63021;52.836;6.376;2024-02-21T00:19:28;102086.50;;;9.66;79.11
55456;BME280;63021;52.836;6.376;2024-02-21T00:21:54;102084.72;;;9.67;78.99
55456;BME280;63021;52.836;6.376;2024-02-21T00:24:19;102066.97;;;9.54;78.98
55456;BME280;63021;52.836;6.376;2024-02-21T00:26:44;102095.53;;;9.64;78.71
55456;BME280;63021;52.836;6.376;2024-02-21T00:29:10;102074.50;;;9.61;79.12
55456;BME280;63021;52.836;6.376;2024-02-21T00:31:35;102074.59;;;9.59;78.95
55456;BME280;63021;52.836;6.376;2024-02-21T00:34:01;102093.75;;;9.64;78.78
55456;BME280;63021;52.836;6.376;2024-02-21T00:36:26;102068.00;;;9.65;78.96
55456;BME280;63021;52.836;6.376;2024-02-21T00:38:52;102034.34;;;9.52;78.92
55456;BME280;63021;52.836;6.376;2024-02-21T00:41:17;102030.81;;;9.52;78.80
55456;BME280;63021;52.836;6.376;2024-02-21T00:43:43;102061.19;;;9.61;79.11
55456;BME280;63021;52.836;6.376;2024-02-21T00:46:08;102046.66;;;9.53;79.10
55456;BME280;63021;52.836;6.376;2024-02-21T00:48:33;102033.78;;;9.60;79.28
55456;BME280;63021;52.836;6.376;2024-02-21T00:50:59;102049.72;;;9.60;79.41
55456;BME280;63021;52.836;6.376;2024-02-21T00:53:24;102058.88;;;9.56;79.31
55456;BME280;63021;52.836;6.376;2024-02-21T00:55:50;102041.97;;;9.57;79.47
55456;BME280;63021;52.836;6.376;2024-02-21T00:58:15;102047.63;;;9.52;79.61
55456;BME280;63021;52.836;6.376;2024-02-21T01:00:41;102018.28;;;9.54;79.28
55456;BME280;63021;52.836;6.376;2024-02-21T01:03:06;101997.31;;;9.49;79.83
55456;BME280;63021;52.836;6.376;2024-02-21T01:05:31;102008.06;;;9.48;79.91
55456;BME280;63021;52.836;6.376;2024-02-21T01:07:57;102000.97;;;9.48;79.99
55456;BME280;63021;52.836;6.376;2024-02-21T01:10:22;101989.56;;;9.46;79.70
55456;BME280;63021;52.836;6.376;2024-02-21T01:12:48;101983.66;;;9.43;79.98
55456;BME280;63021;52.836;6.376;2024-02-21T01:15:13;101993.53;;;9.41;79.91
55456;BME280;63021;52.836;6.376;2024-02-21T01:17:38;101997.88;;;9.42;80.12
55456;BME280;63021;52.836;6.376;2024-02-21T01:20:06;101998.94;;;9.39;80.04
55456;BME280;63021;52.836;6.376;2024-02-21T01:22:32;102009.59;;;9.39;80.44
55456;BME280;63021;52.836;6.376;2024-02-21T01:24:57;101995.56;;;9.37;80.57
55456;BME280;63021;52.836;6.376;2024-02-21T01:27:22;102000.88;;;9.37;80.71
55456;BME280;63021;52.836;6.376;2024-02-21T01:29:48;102003.66;;;9.35;80.70
55456;BME280;63021;52.836;6.376;2024-02-21T01:32:15;102002.06;;;9.33;80.67
55456;BME280;63021;52.836;6.376;2024-02-21T01:34:41;101996.84;;;9.31;80.74
55456;BME280;63021;52.836;6.376;2024-02-21T01:37:06;101993.34;;;9.31;80.97
55456;BME280;63021;52.836;6.376;2024-02-21T01:39:33;101992.59;;;9.29;80.67
55456;BME280;63021;52.836;6.376;2024-02-21T01:41:58;102006.97;;;9.26;81.18
55456;BME280;63021;52.836;6.376;2024-02-21T01:44:24;101996.56;;;9.23;81.29
55456;BME280;63021;52.836;6.376;2024-02-21T01:46:50;102014.31;;;9.23;81.14
55456;BME280;63021;52.836;6.376;2024-02-21T01:49:16;101987.75;;;9.23;81.26
55456;BME280;63021;52.836;6.376;2024-02-21T01:51:42;101979.00;;;9.21;81.53
55456;BME280;63021;52.836;6.376;2024-02-21T01:54:08;101985.09;;;9.23;81.57
55456;BME280;63021;52.836;6.376;2024-02-21T01:56:35;101969.69;;;9.15;81.48
55456;BME280;63021;52.836;6.376;2024-02-21T01:59:00;101978.41;;;9.17;81.54
55456;BME280;63021;52.836;6.376;2024-02-21T02:01:26;101977.34;;;9.19;81.62
55456;BME280;63021;52.836;6.376;2024-02-21T02:03:52;101966.06;;;9.16;81.44
55456;BME280;63021;52.836;6.376;2024-02-21T02:06:18;101947.28;;;9.06;81.52
55456;BME280;63021;52.836;6.376;2024-02-21T02:08:44;101968.63;;;9.17;81.69
55456;BME280;63021;52.836;6.376;2024-02-21T02:11:10;101953.72;;;9.15;81.82
55456;BME280;63021;52.836;6.376;2024-02-21T02:13:35;101966.06;;;9.16;82.00
55456;BME280;63021;52.836;6.376;2024-02-21T02:16:01;101968.94;;;9.13;82.28
55456;BME280;63021;52.836;6.376;2024-02-21T02:18:26;101969.69;;;9.15;82.22
55456;BME280;63021;52.836;6.376;2024-02-21T02:20:52;101975.00;;;9.15;82.35
55456;BME280;63021;52.836;6.376;2024-02-21T02:23:33;101956.50;;;9.13;82.43
55456;BME280;63021;52.836;6.376;2024-02-21T02:25:59;101976.38;;;9.08;82.70
55456;BME280;63021;52.836;6.376;2024-02-21T02:28:26;101962.25;;;9.07;82.54
55456;BME280;63021;52.836;6.376;2024-02-21T02:30:52;101949.53;;;8.99;82.60
55456;BME280;63021;52.836;6.376;2024-02-21T02:33:17;101989.06;;;9.04;82.92
55456;BME280;63021;52.836;6.376;2024-02-21T02:35:43;101965.88;;;9.06;83.34
55456;BME280;63021;52.836;6.376;2024-02-21T02:38:08;101968.13;;;8.99;82.89
55456;BME280;63021;52.836;6.376;2024-02-21T02:40:35;101964.28;;;9.04;83.22
55456;BME280;63021;52.836;6.376;2024-02-21T02:43:01;101952.69;;;9.05;83.57
55456;BME280;63021;52.836;6.376;2024-02-21T02:45:26;101936.16;;;9.01;83.36
55456;BME280;63021;52.836;6.376;2024-02-21T02:47:53;101946.56;;;9.04;83.38
55456;BME280;63021;52.836;6.376;2024-02-21T02:50:25;101937.31;;;8.97;83.83
55456;BME280;63021;52.836;6.376;2024-02-21T02:52:52;101943.38;;;8.99;83.69
55456;BME280;63021;52.836;6.376;2024-02-21T02:55:17;101938.06;;;8.99;84.04
55456;BME280;63021;52.836;6.376;2024-02-21T02:57:43;101928.59;;;8.95;83.99
55456;BME280;63021;52.836;6.376;2024-02-21T03:00:10;101948.69;;;8.99;83.96
55456;BME280;63021;52.836;6.376;2024-02-21T03:02:38;101937.09;;;9.00;84.15
55456;BME280;63021;52.836;6.376;2024-02-21T03:05:15;101931.78;;;9.00;84.05
55456;BME280;63021;52.836;6.376;2024-02-21T03:07:41;101920.44;;;8.98;84.19
55456;BME280;63021;52.836;6.376;2024-02-21T03:10:07;101925.75;;;8.98;84.38
55456;BME280;63021;52.836;6.376;2024-02-21T03:12:33;101913.00;;;8.90;84.21
55456;BME280;63021;52.836;6.376;2024-02-21T03:14:58;101932.00;;;8.97;84.65
55456;BME280;63021;52.836;6.376;2024-02-21T03:17:24;101915.22;;;8.96;84.72
55456;BME280;63021;52.836;6.376;2024-02-21T03:19:52;101928.50;;;8.96;84.53
55456;BME280;63021;52.836;6.376;2024-02-21T03:22:17;101916.06;;;8.97;84.25
55456;BME280;63021;52.836;6.376;2024-02-21T03:24:43;101913.53;;;8.95;84.96
55456;BME280;63021;52.836;6.376;2024-02-21T03:27:08;101918.72;;;8.97;84.79
55456;BME280;63021;52.836;6.376;2024-02-21T03:29:34;101917.38;;;8.91;84.83
55456;BME280;63021;52.836;6.376;2024-02-21T03:31:59;101925.78;;;8.85;85.15
55456;BME280;63021;52.836;6.376;2024-02-21T03:34:28;101910.34;;;8.90;84.92
55456;BME280;63021;52.836;6.376;2024-02-21T03:36:53;101926.16;;;8.92;85.05
55456;BME280;63021;52.836;6.376;2024-02-21T03:39:18;101912.38;;;8.87;84.99
55456;BME280;63021;52.836;6.376;2024-02-21T03:41:44;101917.03;;;8.96;85.03
55456;BME280;63021;52.836;6.376;2024-02-21T03:44:09;101915.31;;;8.95;85.17
55456;BME280;63021;52.836;6.376;2024-02-21T03:46:34;101926.94;;;8.94;85.13
55456;BME280;63021;52.836;6.376;2024-02-21T03:49:00;101926.81;;;8.95;85.12
55456;BME280;63021;52.836;6.376;2024-02-21T03:51:26;101917.88;;;8.96;85.34
55456;BME280;63021;52.836;6.376;2024-02-21T03:53:52;101903.88;;;8.94;85.14
55456;BME280;63021;52.836;6.376;2024-02-21T03:56:17;101903.53;;;8.99;85.15
55456;BME280;63021;52.836;6.376;2024-02-21T03:58:42;101898.22;;;8.99;85.29
55456;BME280;63021;52.836;6.376;2024-02-21T04:01:08;101888.47;;;8.99;85.39
55456;BME280;63021;52.836;6.376;2024-02-21T04:03:33;101922.13;;;8.99;85.46
55456;BME280;63021;52.836;6.376;2024-02-21T04:05:59;101876.88;;;8.88;85.02
55456;BME280;63021;52.836;6.376;2024-02-21T04:08:25;101898.97;;;9.01;85.18
55456;BME280;63021;52.836;6.376;2024-02-21T04:10:51;101897.25;;;9.00;85.62
55456;BME280;63021;52.836;6.376;2024-02-21T04:13:16;101874.75;;;8.93;85.50
55456;BME280;63021;52.836;6.376;2024-02-21T04:15:42;101866.16;;;8.89;85.35
55456;BME280;63021;52.836;6.376;2024-02-21T04:18:07;101863.41;;;8.91;85.28
55456;BME280;63021;52.836;6.376;2024-02-21T04:20:34;101883.25;;;8.98;85.54
55456;BME280;63021;52.836;6.376;2024-02-21T04:23:00;101881.31;;;9.00;85.57
55456;BME280;63021;52.836;6.376;2024-02-21T04:25:25;101907.88;;;9.00;85.76
55456;BME280;63021;52.836;6.376;2024-02-21T04:27:54;101888.47;;;8.99;85.65
55456;BME280;63021;52.836;6.376;2024-02-21T04:30:19;101872.84;;;8.95;85.52
55456;BME280;63021;52.836;6.376;2024-02-21T04:32:45;101887.34;;;9.02;85.66
55456;BME280;63021;52.836;6.376;2024-02-21T04:35:10;101875.78;;;9.03;85.26
55456;BME280;63021;52.836;6.376;2024-02-21T04:37:36;101873.13;;;9.03;85.30
55456;BME280;63021;52.836;6.376;2024-02-21T04:40:01;101866.69;;;8.94;85.46
55456;BME280;63021;52.836;6.376;2024-02-21T04:42:27;101860.69;;;9.04;85.30
55456;BME280;63021;52.836;6.376;2024-02-21T04:44:52;101851.16;;;9.01;85.32
55456;BME280;63021;52.836;6.376;2024-02-21T04:47:18;101849.00;;;9.06;85.37
55456;BME280;63021;52.836;6.376;2024-02-21T04:49:45;101830.97;;;8.98;85.20
55456;BME280;63021;52.836;6.376;2024-02-21T04:52:11;101819.59;;;8.96;85.08
55456;BME280;63021;52.836;6.376;2024-02-21T04:54:36;101839.34;;;9.05;85.48
55456;BME280;63021;52.836;6.376;2024-02-21T04:57:02;101843.06;;;9.02;85.15
55456;BME280;63021;52.836;6.376;2024-02-21T04:59:27;101833.97;;;8.94;85.10
55456;BME280;63021;52.836;6.376;2024-02-21T05:01:53;101850.06;;;9.04;85.12
55456;BME280;63021;52.836;6.376;2024-02-21T05:04:18;101865.28;;;9.01;85.58
55456;BME280;63021;52.836;6.376;2024-02-21T05:06:44;101865.16;;;9.03;85.21
55456;BME280;63021;52.836;6.376;2024-02-21T05:09:09;101857.94;;;9.05;85.02
55456;BME280;63021;52.836;6.376;2024-02-21T05:11:36;101835.72;;;9.06;85.37
55456;BME280;63021;52.836;6.376;2024-02-21T05:14:01;101834.75;;;9.07;85.47
55456;BME280;63021;52.836;6.376;2024-02-21T05:16:27;101834.75;;;9.07;85.22
55456;BME280;63021;52.836;6.376;2024-02-21T05:18:53;101825.31;;;9.03;85.09
55456;BME280;63021;52.836;6.376;2024-02-21T05:21:18;101851.53;;;9.08;85.35
55456;BME280;63021;52.836;6.376;2024-02-21T05:23:44;101826.28;;;9.02;85.01
55456;BME280;63021;52.836;6.376;2024-02-21T05:26:10;101855.78;;;9.10;85.25
55456;BME280;63021;52.836;6.376;2024-02-21T05:28:35;101816.63;;;9.01;85.09
55456;BME280;63021;52.836;6.376;2024-02-21T05:31:00;101836.00;;;9.14;85.20
55456;BME280;63021;52.836;6.376;2024-02-21T05:33:26;101829.84;;;9.14;85.16
55456;BME280;63021;52.836;6.376;2024-02-21T05:35:52;101814.88;;;9.13;84.98
55456;BME280;63021;52.836;6.376;2024-02-21T05:38:17;101812.22;;;9.13;85.11
55456;BME280;63021;52.836;6.376;2024-02-21T05:40:44;101808.59;;;9.14;84.99
55456;BME280;63021;52.836;6.376;2024-02-21T05:43:10;101811.25;;;9.14;84.95
55456;BME280;63021;52.836;6.376;2024-02-21T05:45:36;101779.56;;;8.99;85.14
55456;BME280;63021;52.836;6.376;2024-02-21T05:48:01;101820.06;;;9.14;84.91
55456;BME280;63021;52.836;6.376;2024-02-21T05:50:27;101803.19;;;9.15;84.33
55456;BME280;63021;52.836;6.376;2024-02-21T05:52:56;101793.38;;;9.16;84.91
55456;BME280;63021;52.836;6.376;2024-02-21T05:55:22;101776.44;;;9.06;84.42
55456;BME280;63021;52.836;6.376;2024-02-21T05:57:48;101804.47;;;9.10;84.97
55456;BME280;63021;52.836;6.376;2024-02-21T06:00:14;101801.34;;;9.16;84.74
55456;BME280;63021;52.836;6.376;2024-02-21T06:02:40;101775.13;;;9.11;84.71
55456;BME280;63021;52.836;6.376;2024-02-21T06:05:06;101779.50;;;9.12;84.93
55456;BME280;63021;52.836;6.376;2024-02-21T06:07:38;101775.88;;;9.13;84.60
55456;BME280;63021;52.836;6.376;2024-02-21T06:10:04;101766.34;;;9.11;84.89
55456;BME280;63021;52.836;6.376;2024-02-21T06:12:29;101789.03;;;9.15;84.71
55456;BME280;63021;52.836;6.376;2024-02-21T06:14:55;101761.63;;;9.14;84.66
55456;BME280;63021;52.836;6.376;2024-02-21T06:17:20;101728.00;;;9.02;84.35
55456;BME280;63021;52.836;6.376;2024-02-21T06:19:46;101761.84;;;9.11;84.82
55456;BME280;63021;52.836;6.376;2024-02-21T06:22:11;101741.91;;;9.06;84.68
55456;BME280;63021;52.836;6.376;2024-02-21T06:24:37;101759.19;;;9.11;84.51
55456;BME280;63021;52.836;6.376;2024-02-21T06:27:06;101759.31;;;9.10;84.31
55456;BME280;63021;52.836;6.376;2024-02-21T06:29:32;101782.28;;;9.11;84.77
55456;BME280;63021;52.836;6.376;2024-02-21T06:31:58;101762.56;;;9.13;84.83
55456;BME280;63021;52.836;6.376;2024-02-21T06:34:24;101760.78;;;9.14;84.68
55456;BME280;63021;52.836;6.376;2024-02-21T06:36:50;101766.22;;;9.12;84.47
55456;BME280;63021;52.836;6.376;2024-02-21T06:39:16;101743.50;;;9.08;84.40
55456;BME280;63021;52.836;6.376;2024-02-21T06:41:42;101772.72;;;9.08;84.60
55456;BME280;63021;52.836;6.376;2024-02-21T06:44:07;101759.19;;;9.11;84.64
55456;BME280;63021;52.836;6.376;2024-02-21T06:46:33;101761.84;;;9.11;84.55
55456;BME280;63021;52.836;6.376;2024-02-21T06:48:59;101766.22;;;9.12;84.51
55456;BME280;63021;52.836;6.376;2024-02-21T06:51:25;101759.19;;;9.11;84.64
55456;BME280;63021;52.836;6.376;2024-02-21T06:53:51;101766.34;;;9.11;84.29
55456;BME280;63021;52.836;6.376;2024-02-21T06:56:16;101753.13;;;9.09;84.65
55456;BME280;63021;52.836;6.376;2024-02-21T06:58:42;101758.25;;;9.12;84.42
55456;BME280;63021;52.836;6.376;2024-02-21T07:01:08;101736.72;;;9.04;84.58
55456;BME280;63021;52.836;6.376;2024-02-21T07:03:33;101767.19;;;9.11;84.40
55456;BME280;63021;52.836;6.376;2024-02-21T07:05:59;101759.09;;;9.13;84.20
55456;BME280;63021;52.836;6.376;2024-02-21T07:08:24;101761.75;;;9.13;84.42
55456;BME280;63021;52.836;6.376;2024-02-21T07:10:50;101764.75;;;9.08;84.16
55456;BME280;63021;52.836;6.376;2024-02-21T07:13:15;101744.34;;;9.09;84.10
55456;BME280;63021;52.836;6.376;2024-02-21T07:15:41;101740.59;;;9.11;84.28
55456;BME280;63021;52.836;6.376;2024-02-21T07:18:07;101746.75;;;9.12;84.37
55456;BME280;63021;52.836;6.376;2024-02-21T07:20:32;101739.84;;;9.09;84.41
55456;BME280;63021;52.836;6.376;2024-02-21T07:23:06;101733.00;;;9.07;84.26
55456;BME280;63021;52.836;6.376;2024-02-21T07:25:32;101738.19;;;9.08;84.29
55456;BME280;63021;52.836;6.376;2024-02-21T07:27:57;101743.81;;;9.04;84.45
55456;BME280;63021;52.836;6.376;2024-02-21T07:30:23;101755.31;;;9.04;84.13
55456;BME280;63021;52.836;6.376;2024-02-21T07:32:51;101730.66;;;9.02;84.21
55456;BME280;63021;52.836;6.376;2024-02-21T07:35:20;101726.81;;;9.06;84.02
55456;BME280;63021;52.836;6.376;2024-02-21T07:37:45;101724.16;;;9.06;83.93
55456;BME280;63021;52.836;6.376;2024-02-21T07:40:15;101730.66;;;9.02;83.99
55456;BME280;63021;52.836;6.376;2024-02-21T07:42:41;101717.19;;;9.05;84.32
55456;BME280;63021;52.836;6.376;2024-02-21T07:45:09;101710.28;;;9.02;84.21
55456;BME280;63021;52.836;6.376;2024-02-21T07:47:36;101719.84;;;9.05;84.14
55456;BME280;63021;52.836;6.376;2024-02-21T07:50:04;101711.94;;;9.04;83.89
55456;BME280;63021;52.836;6.376;2024-02-21T07:52:30;101703.25;;;9.01;83.94
55456;BME280;63021;52.836;6.376;2024-02-21T07:54:55;101702.19;;;9.04;84.25
55456;BME280;63021;52.836;6.376;2024-02-21T07:57:21;101709.41;;;9.02;84.00
55456;BME280;63021;52.836;6.376;2024-02-21T07:59:54;101682.50;;;8.95;83.80
55456;BME280;63021;52.836;6.376;2024-02-21T08:02:23;101695.19;;;9.03;83.80
55456;BME280;63021;52.836;6.376;2024-02-21T08:04:48;101695.28;;;9.01;83.69
55456;BME280;63021;52.836;6.376;2024-02-21T08:07:13;101689.25;;;8.99;83.96
55456;BME280;63021;52.836;6.376;2024-02-21T08:09:39;101713.88;;;9.01;83.85
55456;BME280;63021;52.836;6.376;2024-02-21T08:12:05;101688.16;;;9.02;83.53
55456;BME280;63021;52.836;6.376;2024-02-21T08:14:31;101686.50;;;9.01;83.82
55456;BME280;63021;52.836;6.376;2024-02-21T08:16:56;101697.00;;;9.02;83.93
55456;BME280;63021;52.836;6.376;2024-02-21T08:19:22;101686.25;;;9.04;83.79
55456;BME280;63021;52.836;6.376;2024-02-21T08:21:50;101702.44;;;9.01;83.91
55456;BME280;63021;52.836;6.376;2024-02-21T08:24:16;101688.91;;;9.04;83.66
55456;BME280;63021;52.836;6.376;2024-02-21T08:26:42;101667.50;;;8.94;83.91
55456;BME280;63021;52.836;6.376;2024-02-21T08:29:10;101679.25;;;9.03;83.43
55456;BME280;63021;52.836;6.376;2024-02-21T08:31:35;101671.16;;;9.05;83.81
55456;BME280;63021;52.836;6.376;2024-02-21T08:34:01;101683.47;;;9.06;83.96
55456;BME280;63021;52.836;6.376;2024-02-21T08:36:29;101676.34;;;9.06;83.65
55456;BME280;63021;52.836;6.376;2024-02-21T08:38:56;101680.00;;;9.05;83.66
55456;BME280;63021;52.836;6.376;2024-02-21T08:41:22;101663.81;;;9.08;83.34
55456;BME280;63021;52.836;6.376;2024-02-21T08:43:52;101677.09;;;9.08;83.25
55456;BME280;63021;52.836;6.376;2024-02-21T08:46:19;101665.41;;;9.11;83.64
55456;BME280;63021;52.836;6.376;2024-02-21T08:48:45;101651.38;;;9.09;83.32
55456;BME280;63021;52.836;6.376;2024-02-21T08:51:12;101642.81;;;9.05;83.53
55456;BME280;63021;52.836;6.376;2024-02-21T08:53:37;101638.72;;;9.12;83.35
55456;BME280;63021;52.836;6.376;2024-02-21T08:56:03;101650.41;;;9.10;83.12
55456;BME280;63021;52.836;6.376;2024-02-21T08:58:29;101648.34;;;9.13;83.24
55456;BME280;63021;52.836;6.376;2024-02-21T09:00:54;101613.59;;;9.05;83.04
55456;BME280;63021;52.836;6.376;2024-02-21T09:03:20;101634.13;;;9.14;82.58
55456;BME280;63021;52.836;6.376;2024-02-21T09:05:46;101615.63;;;9.13;82.76
55456;BME280;63021;52.836;6.376;2024-02-21T09:08:12;101630.63;;;9.14;82.74
55456;BME280;63021;52.836;6.376;2024-02-21T09:10:39;101600.53;;;9.13;82.72
55456;BME280;63021;52.836;6.376;2024-02-21T09:13:04;101614.19;;;9.09;82.80
55456;BME280;63021;52.836;6.376;2024-02-21T09:15:30;101631.34;;;9.16;82.66
55456;BME280;63021;52.836;6.376;2024-02-21T09:17:55;101613.56;;;9.16;82.89
55456;BME280;63021;52.836;6.376;2024-02-21T09:20:21;101618.19;;;9.14;82.46
55456;BME280;63021;52.836;6.376;2024-02-21T09:22:47;101623.38;;;9.16;82.18
55456;BME280;63021;52.836;6.376;2024-02-21T09:25:12;101617.34;;;9.14;82.41
55456;BME280;63021;52.836;6.376;2024-02-21T09:27:38;101612.63;;;9.17;82.19
55456;BME280;63021;52.836;6.376;2024-02-21T09:30:05;101607.44;;;9.16;82.18
55456;BME280;63021;52.836;6.376;2024-02-21T09:32:32;101605.41;;;9.19;82.12
55456;BME280;63021;52.836;6.376;2024-02-21T09:34:58;101627.59;;;9.18;82.23
55456;BME280;63021;52.836;6.376;2024-02-21T09:37:23;101625.66;;;9.21;82.25
55456;BME280;63021;52.836;6.376;2024-02-21T09:39:49;101590.66;;;9.15;82.29
55456;BME280;63021;52.836;6.376;2024-02-21T09:42:20;101597.91;;;9.25;81.75
55456;BME280;63021;52.836;6.376;2024-02-21T09:44:46;101574.59;;;9.17;81.87
55456;BME280;63021;52.836;6.376;2024-02-21T09:47:22;101590.44;;;9.30;82.05
55456;BME280;63021;52.836;6.376;2024-02-21T09:49:49;101579.78;;;9.30;81.85
55456;BME280;63021;52.836;6.376;2024-02-21T09:52:19;101587.41;;;9.34;81.54
55456;BME280;63021;52.836;6.376;2024-02-21T09:54:45;101581.38;;;9.32;81.74
55456;BME280;63021;52.836;6.376;2024-02-21T09:57:14;101583.03;;;9.33;81.37
55456;BME280;63021;52.836;6.376;2024-02-21T09:59:40;101565.78;;;9.39;81.19
55456;BME280;63021;52.836;6.376;2024-02-21T10:02:08;101562.75;;;9.44;81.19
55456;BME280;63021;52.836;6.376;2024-02-21T10:04:34;101561.53;;;9.48;81.13
55456;BME280;63021;52.836;6.376;2024-02-21T10:06:59;101560.69;;;9.47;80.60
55456;BME280;63021;52.836;6.376;2024-02-21T10:09:28;101559.00;;;9.46;80.78
55456;BME280;63021;52.836;6.376;2024-02-21T10:11:55;101549.81;;;9.50;80.92
55456;BME280;63021;52.836;6.376;2024-02-21T10:15:00;101526.84;;;9.49;80.30
55456;BME280;63021;52.836;6.376;2024-02-21T10:17:25;101534.63;;;9.52;80.19
55456;BME280;63021;52.836;6.376;2024-02-21T10:19:50;101523.50;;;9.47;80.32
55456;BME280;63021;52.836;6.376;2024-02-21T10:22:17;101532.78;;;9.53;80.40
55456;BME280;63021;52.836;6.376;2024-02-21T10:24:42;101531.69;;;9.56;80.07
55456;BME280;63021;52.836;6.376;2024-02-21T10:27:09;101516.72;;;9.54;80.29
55456;BME280;63021;52.836;6.376;2024-02-21T10:29:36;101516.34;;;9.59;80.21
55456;BME280;63021;52.836;6.376;2024-02-21T10:32:13;101533.72;;;9.63;80.01
55456;BME280;63021;52.836;6.376;2024-02-21T10:34:40;101494.69;;;9.64;80.20
55456;BME280;63021;52.836;6.376;2024-02-21T10:37:08;101514.88;;;9.66;80.05
55456;BME280;63021;52.836;6.376;2024-02-21T10:39:41;101494.91;;;9.72;80.05
55456;BME280;63021;52.836;6.376;2024-02-21T10:42:06;101491.75;;;9.78;79.73
55456;BME280;63021;52.836;6.376;2024-02-21T10:44:38;101481.84;;;9.80;79.39
55456;BME280;63021;52.836;6.376;2024-02-21T10:47:08;101492.47;;;9.80;79.42
55456;BME280;63021;52.836;6.376;2024-02-21T10:49:38;101476.53;;;9.80;79.43
55456;BME280;63021;52.836;6.376;2024-02-21T10:54:47;101473.97;;;9.90;78.91
55456;BME280;63021;52.836;6.376;2024-02-21T10:57:13;101475.75;;;9.89;78.96
55456;BME280;63021;52.836;6.376;2024-02-21T10:59:39;101492.56;;;9.90;79.04
55456;BME280;63021;52.836;6.376;2024-02-21T11:02:05;101488.91;;;9.91;78.82
55456;BME280;63021;52.836;6.376;2024-02-21T11:04:32;101456.03;;;9.92;78.86
55456;BME280;63021;52.836;6.376;2024-02-21T11:07:02;101463.88;;;9.94;78.73
55456;BME280;63021;52.836;6.376;2024-02-21T11:09:29;101466.56;;;9.94;78.74
55456;BME280;63021;52.836;6.376;2024-02-21T11:12:02;101436.00;;;9.88;78.49
55456;BME280;63021;52.836;6.376;2024-02-21T11:14:31;101444.88;;;9.98;78.50
55456;BME280;63021;52.836;6.376;2024-02-21T11:17:18;101468.94;;;9.97;78.32
55456;BME280;63021;52.836;6.376;2024-02-21T11:19:44;101435.38;;;9.96;78.36
55456;BME280;63021;52.836;6.376;2024-02-21T11:22:16;101423.28;;;9.92;78.43
55456;BME280;63021;52.836;6.376;2024-02-21T11:24:42;101426.41;;;9.97;78.55
55456;BME280;63021;52.836;6.376;2024-02-21T11:27:20;101413.97;;;9.97;78.22
55456;BME280;63021;52.836;6.376;2024-02-21T11:29:48;101420.94;;;9.98;78.08
55456;BME280;63021;52.836;6.376;2024-02-21T11:32:17;101392.47;;;9.89;78.08
55456;BME280;63021;52.836;6.376;2024-02-21T11:34:56;101391.13;;;9.95;78.23
55456;BME280;63021;52.836;6.376;2024-02-21T11:37:30;101384.84;;;9.96;78.17
55456;BME280;63021;52.836;6.376;2024-02-21T11:40:04;101360.44;;;9.91;78.06
55456;BME280;63021;52.836;6.376;2024-02-21T11:42:32;101354.66;;;9.85;77.99
55456;BME280;63021;52.836;6.376;2024-02-21T11:44:59;101366.34;;;9.94;77.94
55456;BME280;63021;52.836;6.376;2024-02-21T11:47:24;101345.06;;;9.94;77.68
55456;BME280;63021;52.836;6.376;2024-02-21T11:49:50;101358.38;;;9.94;77.75
55456;BME280;63021;52.836;6.376;2024-02-21T11:52:21;101340.84;;;9.92;77.64
55456;BME280;63021;52.836;6.376;2024-02-21T11:54:48;101343.66;;;9.90;77.24
55456;BME280;63021;52.836;6.376;2024-02-21T11:57:13;101309.06;;;9.90;77.52
55456;BME280;63021;52.836;6.376;2024-02-21T11:59:40;101316.78;;;9.93;77.37
55456;BME280;63021;52.836;6.376;2024-02-21T12:02:06;101300.69;;;9.95;77.23
55456;BME280;63021;52.836;6.376;2024-02-21T12:04:32;101284.28;;;9.89;77.37
55456;BME280;63021;52.836;6.376;2024-02-21T12:06:58;101285.13;;;9.90;77.30
55456;BME280;63021;52.836;6.376;2024-02-21T12:09:24;101269.88;;;9.92;77.07
55456;BME280;63021;52.836;6.376;2024-02-21T12:12:03;101261.50;;;9.97;76.92
55456;BME280;63021;52.836;6.376;2024-02-21T12:14:31;101263.19;;;9.98;76.96
55456;BME280;63021;52.836;6.376;2024-02-21T12:16:57;101243.59;;;9.99;77.05
55456;BME280;63021;52.836;6.376;2024-02-21T12:19:22;101208.16;;;9.98;76.61
55456;BME280;63021;52.836;6.376;2024-02-21T12:21:49;101228.34;;;10.01;76.93
55456;BME280;63021;52.836;6.376;2024-02-21T12:24:27;101224.44;;;10.05;76.71
55456;BME280;63021;52.836;6.376;2024-02-21T12:26:54;101260.56;;;10.08;76.42
55456;BME280;63021;52.836;6.376;2024-02-21T12:29:20;101255.53;;;10.04;76.72
55456;BME280;63021;52.836;6.376;2024-02-21T12:31:46;101257.09;;;10.07;76.41
55456;BME280;63021;52.836;6.376;2024-02-21T12:34:13;101241.00;;;10.09;76.14
55456;BME280;63021;52.836;6.376;2024-02-21T12:36:42;101245.44;;;10.08;76.13
55456;BME280;63021;52.836;6.376;2024-02-21T12:39:08;101237.88;;;10.03;75.90
55456;BME280;63021;52.836;6.376;2024-02-21T12:41:35;101234.53;;;10.01;75.94
55456;BME280;63021;52.836;6.376;2024-02-21T12:44:04;101241.44;;;9.93;76.09
55456;BME280;63021;52.836;6.376;2024-02-21T12:46:30;101246.97;;;10.01;76.06
55456;BME280;63021;52.836;6.376;2024-02-21T12:48:55;101233.94;;;9.98;75.76
55456;BME280;63021;52.836;6.376;2024-02-21T12:51:21;101223.44;;;9.96;75.69
55456;BME280;63021;52.836;6.376;2024-02-21T12:53:48;101203.97;;;9.96;75.65
55456;BME280;63021;52.836;6.376;2024-02-21T12:56:15;101204.81;;;9.96;75.72
55456;BME280;63021;52.836;6.376;2024-02-21T12:58:40;101159.47;;;9.98;75.86